JBU1103 KBDL-KRSW
Flight info
| Callsign | JBU1103 |
|---|---|
| Flight time | N/A |
| Altitude | 36000 |
| Route | THUMB1 CCC HEADI Q97 KALDA Q131 WAALT Y289 BAHAA HIBAC SHFTY6 |
| Aircraft | A320/M-SDE3FGHIRWY/LB1 |
Departure
| Time | 2026-05-06 20:43 |
|---|---|
| Airport | Bradley International Airport (KBDL) |
Arrival
| Time | N/A |
|---|---|
| Airport | Southwest Florida International Airport (KRSW) |
| Time | Latitude | Longitude | Altitude | Speed | Heading |
|---|---|---|---|---|---|
| 2026-05-06 20:17 | 41.92932 | -72.68093 | 181 ft | 0 kts | 315° |
| 2026-05-06 20:28 | 41.92931 | -72.68091 | 190 ft | 2 kts | 315° |
| 2026-05-06 20:29 | 41.92916 | -72.68073 | 180 ft | 3 kts | 323° |
| 2026-05-06 20:29 | 41.92901 | -72.68058 | 180 ft | 3 kts | 327° |
| 2026-05-06 20:29 | 41.92888 | -72.68051 | 180 ft | 3 kts | 41° |
| 2026-05-06 20:29 | 41.92879 | -72.68071 | 180 ft | 3 kts | 83° |
| 2026-05-06 20:30 | 41.92876 | -72.68099 | 180 ft | 3 kts | 83° |
| 2026-05-06 20:30 | 41.92875 | -72.68114 | 180 ft | 0 kts | 83° |
| 2026-05-06 20:33 | 41.92876 | -72.68100 | 180 ft | 3 kts | 83° |
| 2026-05-06 20:34 | 41.92877 | -72.68088 | 180 ft | 0 kts | 83° |
| 2026-05-06 20:34 | 41.92881 | -72.68048 | 180 ft | 5 kts | 83° |
| 2026-05-06 20:34 | 41.92893 | -72.68021 | 181 ft | 2 kts | 50° |
| 2026-05-06 20:35 | 41.92897 | -72.68015 | 181 ft | 0 kts | 50° |
| 2026-05-06 20:36 | 41.92946 | -72.67949 | 181 ft | 23 kts | 45° |
| 2026-05-06 20:37 | 41.92969 | -72.67920 | 182 ft | 1 kts | 27° |
| 2026-05-06 20:37 | 41.92995 | -72.67927 | 181 ft | 13 kts | 331° |
| 2026-05-06 20:37 | 41.93039 | -72.67983 | 181 ft | 15 kts | 327° |
| 2026-05-06 20:37 | 41.93135 | -72.68030 | 181 ft | 17 kts | 334° |
| 2026-05-06 20:38 | 41.93227 | -72.68147 | 178 ft | 24 kts | 314° |
| 2026-05-06 20:38 | 41.93387 | -72.68368 | 176 ft | 36 kts | 314° |
| 2026-05-06 20:38 | 41.93555 | -72.68595 | 178 ft | 32 kts | 314° |
| 2026-05-06 20:38 | 41.93681 | -72.68734 | 180 ft | 14 kts | 6° |
| 2026-05-06 20:39 | 41.93742 | -72.68665 | 179 ft | 21 kts | 42° |
| 2026-05-06 20:39 | 41.93870 | -72.68510 | 178 ft | 27 kts | 42° |
| 2026-05-06 20:39 | 41.94004 | -72.68347 | 180 ft | 24 kts | 41° |
| 2026-05-06 20:39 | 41.94142 | -72.68182 | 180 ft | 29 kts | 42° |
| 2026-05-06 20:40 | 41.94280 | -72.68013 | 179 ft | 27 kts | 42° |
| 2026-05-06 20:40 | 41.94408 | -72.67846 | 177 ft | 25 kts | 45° |
| 2026-05-06 20:40 | 41.94530 | -72.67683 | 173 ft | 24 kts | 45° |
| 2026-05-06 20:40 | 41.94645 | -72.67536 | 172 ft | 22 kts | 43° |
| 2026-05-06 20:41 | 41.94750 | -72.67399 | 174 ft | 20 kts | 45° |
| 2026-05-06 20:41 | 41.94852 | -72.67261 | 174 ft | 20 kts | 44° |
| 2026-05-06 20:41 | 41.94934 | -72.67156 | 176 ft | 12 kts | 46° |
| 2026-05-06 20:41 | 41.94996 | -72.67141 | 175 ft | 8 kts | 323° |
| 2026-05-06 20:42 | 41.95022 | -72.67194 | 175 ft | 6 kts | 309° |
| 2026-05-06 20:42 | 41.95038 | -72.67243 | 175 ft | 5 kts | 279° |
| 2026-05-06 20:42 | 41.95012 | -72.67295 | 174 ft | 24 kts | 228° |
| 2026-05-06 20:42 | 41.94727 | -72.67660 | 171 ft | 86 kts | 223° |
| 2026-05-06 20:43 | 41.94183 | -72.68375 | 178 ft | 130 kts | 225° |
| 2026-05-06 20:43 | 41.93472 | -72.69311 | 464 ft | 143 kts | 220° |
| 2026-05-06 20:43 | 41.92770 | -72.70247 | 1090 ft | 144 kts | 220° |
| 2026-05-06 20:43 | 41.92003 | -72.71240 | 1361 ft | 165 kts | 221° |
| 2026-05-06 20:44 | 41.91131 | -72.72353 | 1726 ft | 181 kts | 222° |
| 2026-05-06 20:44 | 41.90181 | -72.73557 | 2174 ft | 197 kts | 223° |
| 2026-05-06 20:44 | 41.89157 | -72.74898 | 2644 ft | 214 kts | 226° |
| 2026-05-06 20:44 | 41.88074 | -72.76369 | 3229 ft | 229 kts | 227° |
| 2026-05-06 20:45 | 41.86775 | -72.77591 | 3991 ft | 239 kts | 200° |
| 2026-05-06 20:45 | 41.85078 | -72.77703 | 4767 ft | 253 kts | 177° |
| 2026-05-06 20:45 | 41.83315 | -72.77326 | 5557 ft | 256 kts | 177° |
| 2026-05-06 20:45 | 41.81564 | -72.76941 | 6146 ft | 256 kts | 177° |
| 2026-05-06 20:46 | 41.79791 | -72.76552 | 6899 ft | 261 kts | 177° |
| 2026-05-06 20:46 | 41.77985 | -72.76161 | 7677 ft | 265 kts | 178° |
| 2026-05-06 20:46 | 41.76158 | -72.75916 | 8471 ft | 264 kts | 185° |
| 2026-05-06 20:46 | 41.74317 | -72.75939 | 9303 ft | 264 kts | 189° |
| 2026-05-06 20:47 | 41.72477 | -72.76066 | 10088 ft | 266 kts | 191° |
| 2026-05-06 20:47 | 41.70577 | -72.76229 | 10462 ft | 285 kts | 191° |
| 2026-05-06 20:47 | 41.68548 | -72.76401 | 10690 ft | 307 kts | 190° |
| 2026-05-06 20:47 | 41.66376 | -72.76554 | 11216 ft | 316 kts | 189° |
| 2026-05-06 20:48 | 41.64164 | -72.76678 | 11898 ft | 320 kts | 189° |
| 2026-05-06 20:48 | 41.61922 | -72.76784 | 12650 ft | 324 kts | 189° |
| 2026-05-06 20:48 | 41.59657 | -72.76880 | 13399 ft | 328 kts | 189° |
| 2026-05-06 20:48 | 41.57369 | -72.76977 | 14017 ft | 331 kts | 189° |
| 2026-05-06 20:49 | 41.55061 | -72.77079 | 14587 ft | 333 kts | 189° |
| 2026-05-06 20:49 | 41.52736 | -72.77181 | 15155 ft | 335 kts | 189° |
| 2026-05-06 20:49 | 41.50425 | -72.77284 | 15700 ft | 338 kts | 189° |
| 2026-05-06 20:49 | 41.48062 | -72.77390 | 16259 ft | 341 kts | 189° |
| 2026-05-06 20:50 | 41.45680 | -72.77498 | 16803 ft | 344 kts | 189° |
| 2026-05-06 20:50 | 41.43275 | -72.77610 | 17365 ft | 347 kts | 189° |
| 2026-05-06 20:50 | 41.40852 | -72.77720 | 17947 ft | 350 kts | 189° |
| 2026-05-06 20:50 | 41.38408 | -72.77833 | 18472 ft | 353 kts | 189° |
| 2026-05-06 20:51 | 41.35938 | -72.77949 | 18950 ft | 357 kts | 189° |
| 2026-05-06 20:51 | 41.33437 | -72.78065 | 19433 ft | 362 kts | 189° |
| 2026-05-06 20:51 | 41.30908 | -72.78182 | 19934 ft | 366 kts | 189° |
| 2026-05-06 20:51 | 41.28346 | -72.78300 | 20428 ft | 370 kts | 190° |
| 2026-05-06 20:52 | 41.25755 | -72.78419 | 20899 ft | 375 kts | 190° |
| 2026-05-06 20:52 | 41.23135 | -72.78539 | 21356 ft | 379 kts | 190° |
| 2026-05-06 20:52 | 41.20521 | -72.78660 | 21805 ft | 383 kts | 191° |
| 2026-05-06 20:52 | 41.17840 | -72.78785 | 22253 ft | 387 kts | 191° |
| 2026-05-06 20:53 | 41.15132 | -72.78910 | 22702 ft | 392 kts | 191° |
| 2026-05-06 20:53 | 41.12395 | -72.79031 | 23145 ft | 396 kts | 191° |
| 2026-05-06 20:53 | 41.09628 | -72.79150 | 23552 ft | 399 kts | 191° |
| 2026-05-06 20:53 | 41.06840 | -72.79271 | 23930 ft | 402 kts | 191° |
| 2026-05-06 20:54 | 41.04038 | -72.79392 | 24334 ft | 404 kts | 191° |
| 2026-05-06 20:54 | 41.01219 | -72.79514 | 24732 ft | 406 kts | 191° |
| 2026-05-06 20:54 | 40.98391 | -72.79638 | 25121 ft | 408 kts | 192° |
| 2026-05-06 20:54 | 40.95598 | -72.80008 | 25502 ft | 399 kts | 200° |
| 2026-05-06 20:55 | 40.92982 | -72.80944 | 25871 ft | 390 kts | 209° |
| 2026-05-06 20:55 | 40.90539 | -72.82416 | 26235 ft | 382 kts | 218° |
| 2026-05-06 20:55 | 40.88349 | -72.84346 | 26598 ft | 377 kts | 224° |
| 2026-05-06 20:55 | 40.86248 | -72.86427 | 26982 ft | 378 kts | 224° |
| 2026-05-06 20:56 | 40.84131 | -72.88505 | 27352 ft | 380 kts | 224° |
| 2026-05-06 20:56 | 40.81999 | -72.90583 | 27721 ft | 381 kts | 224° |
| 2026-05-06 20:56 | 40.79858 | -72.92660 | 28093 ft | 383 kts | 224° |
| 2026-05-06 20:56 | 40.77706 | -72.94743 | 28450 ft | 384 kts | 224° |
| 2026-05-06 20:57 | 40.75544 | -72.96833 | 28808 ft | 386 kts | 224° |
| 2026-05-06 20:57 | 40.73406 | -72.98903 | 29139 ft | 387 kts | 225° |
| 2026-05-06 20:57 | 40.71231 | -73.01009 | 29496 ft | 389 kts | 225° |
| 2026-05-06 20:57 | 40.69048 | -73.03120 | 29832 ft | 390 kts | 225° |
| 2026-05-06 20:58 | 40.66863 | -73.05230 | 30243 ft | 388 kts | 225° |
| 2026-05-06 20:58 | 40.64691 | -73.07325 | 30659 ft | 386 kts | 225° |
| 2026-05-06 20:58 | 40.62524 | -73.09410 | 31065 ft | 385 kts | 225° |
| 2026-05-06 20:58 | 40.60368 | -73.11485 | 31471 ft | 383 kts | 226° |
| 2026-05-06 20:59 | 40.58222 | -73.13553 | 31872 ft | 382 kts | 226° |
| 2026-05-06 20:59 | 40.56081 | -73.15617 | 32263 ft | 381 kts | 226° |
| 2026-05-06 20:59 | 40.53950 | -73.17673 | 32667 ft | 380 kts | 226° |
| 2026-05-06 20:59 | 40.51825 | -73.19723 | 33067 ft | 378 kts | 226° |
| 2026-05-06 21:00 | 40.49733 | -73.21738 | 33468 ft | 377 kts | 227° |
| 2026-05-06 21:00 | 40.47619 | -73.23769 | 33866 ft | 376 kts | 227° |
| 2026-05-06 21:00 | 40.45509 | -73.25791 | 34200 ft | 375 kts | 227° |
| 2026-05-06 21:00 | 40.43404 | -73.27806 | 34526 ft | 374 kts | 227° |
| 2026-05-06 21:01 | 40.41307 | -73.29814 | 34840 ft | 373 kts | 227° |
| 2026-05-06 21:01 | 40.39215 | -73.31816 | 35140 ft | 372 kts | 227° |
| 2026-05-06 21:01 | 40.37127 | -73.33812 | 35440 ft | 371 kts | 227° |
| 2026-05-06 21:01 | 40.35043 | -73.35798 | 35724 ft | 370 kts | 228° |
| 2026-05-06 21:02 | 40.32957 | -73.37786 | 35837 ft | 371 kts | 228° |
| 2026-05-06 21:02 | 40.28783 | -73.41779 | 35854 ft | 375 kts | 228° |
| 2026-05-06 21:03 | 40.24562 | -73.45798 | 35860 ft | 376 kts | 228° |
| 2026-05-06 21:03 | 40.20325 | -73.49820 | 35861 ft | 376 kts | 228° |
| 2026-05-06 21:04 | 40.16092 | -73.53840 | 35860 ft | 376 kts | 228° |
| 2026-05-06 21:04 | 40.11881 | -73.57832 | 35859 ft | 377 kts | 228° |
| 2026-05-06 21:05 | 40.07633 | -73.61848 | 35862 ft | 377 kts | 228° |
| 2026-05-06 21:05 | 40.03373 | -73.65863 | 35866 ft | 378 kts | 228° |
| 2026-05-06 21:06 | 39.99119 | -73.69879 | 35865 ft | 377 kts | 228° |
| 2026-05-06 21:06 | 39.94560 | -73.73470 | 35861 ft | 397 kts | 216° |
| 2026-05-06 21:07 | 39.89472 | -73.76175 | 35861 ft | 398 kts | 216° |
| 2026-05-06 21:07 | 39.84338 | -73.78890 | 35861 ft | 398 kts | 216° |
| 2026-05-06 21:08 | 39.79216 | -73.81614 | 35860 ft | 398 kts | 216° |
| 2026-05-06 21:08 | 39.74090 | -73.84346 | 35865 ft | 398 kts | 216° |
| 2026-05-06 21:09 | 39.68963 | -73.87070 | 35868 ft | 398 kts | 216° |
| 2026-05-06 21:09 | 39.63863 | -73.89768 | 35876 ft | 398 kts | 216° |
| 2026-05-06 21:10 | 39.58732 | -73.92484 | 35875 ft | 398 kts | 216° |
| 2026-05-06 21:10 | 39.53607 | -73.95195 | 35871 ft | 398 kts | 216° |
| 2026-05-06 21:11 | 39.48479 | -73.97897 | 35876 ft | 398 kts | 215° |
| 2026-05-06 21:11 | 39.43382 | -74.00587 | 35878 ft | 396 kts | 217° |
| 2026-05-06 21:11 | 39.40995 | -74.02222 | 35883 ft | 382 kts | 225° |
| 2026-05-06 21:12 | 39.38904 | -74.04242 | 35887 ft | 371 kts | 232° |
| 2026-05-06 21:12 | 39.34974 | -74.08567 | 35889 ft | 371 kts | 231° |
| 2026-05-06 21:13 | 39.31031 | -74.12875 | 35893 ft | 371 kts | 231° |
| 2026-05-06 21:13 | 39.27088 | -74.17165 | 35876 ft | 367 kts | 231° |
| 2026-05-06 21:14 | 39.23249 | -74.21319 | 35846 ft | 359 kts | 231° |
| 2026-05-06 21:14 | 39.19477 | -74.25405 | 35894 ft | 351 kts | 232° |
| 2026-05-06 21:15 | 39.15688 | -74.29549 | 35891 ft | 364 kts | 231° |
| 2026-05-06 21:15 | 39.11806 | -74.33781 | 35888 ft | 370 kts | 231° |
| 2026-05-06 21:16 | 39.07852 | -74.38049 | 35895 ft | 372 kts | 231° |
| 2026-05-06 21:16 | 39.03881 | -74.42320 | 35900 ft | 372 kts | 231° |
| 2026-05-06 21:17 | 38.99912 | -74.46593 | 35897 ft | 373 kts | 231° |
| 2026-05-06 21:17 | 38.95931 | -74.50877 | 35906 ft | 373 kts | 231° |
| 2026-05-06 21:18 | 38.92013 | -74.55172 | 35902 ft | 372 kts | 232° |
| 2026-05-06 21:18 | 38.88210 | -74.59647 | 35905 ft | 370 kts | 233° |
| 2026-05-06 21:19 | 38.84439 | -74.64146 | 35898 ft | 371 kts | 233° |
| 2026-05-06 21:19 | 38.80639 | -74.68630 | 35894 ft | 371 kts | 232° |
| 2026-05-06 21:20 | 38.76841 | -74.73059 | 35892 ft | 372 kts | 232° |
| 2026-05-06 21:20 | 38.72945 | -74.77467 | 35889 ft | 376 kts | 230° |
| 2026-05-06 21:21 | 38.68869 | -74.81690 | 35891 ft | 378 kts | 229° |
| 2026-05-06 21:21 | 38.64750 | -74.85883 | 35893 ft | 379 kts | 229° |
| 2026-05-06 21:22 | 38.60676 | -74.90087 | 35895 ft | 379 kts | 229° |
| 2026-05-06 21:22 | 38.56586 | -74.94336 | 35901 ft | 379 kts | 230° |
| 2026-05-06 21:23 | 38.52492 | -74.98597 | 35904 ft | 379 kts | 230° |
| 2026-05-06 21:23 | 38.48504 | -75.02970 | 35906 ft | 377 kts | 231° |
| 2026-05-06 21:24 | 38.44526 | -75.07306 | 35912 ft | 381 kts | 229° |
| 2026-05-06 21:24 | 38.40263 | -75.11388 | 35912 ft | 385 kts | 227° |
| 2026-05-06 21:25 | 38.35920 | -75.15394 | 35910 ft | 385 kts | 227° |
| 2026-05-06 21:25 | 38.31598 | -75.19427 | 35910 ft | 385 kts | 227° |
| 2026-05-06 21:26 | 38.27319 | -75.23478 | 35907 ft | 386 kts | 227° |
| 2026-05-06 21:26 | 38.23018 | -75.27560 | 35906 ft | 386 kts | 227° |
| 2026-05-06 21:27 | 38.18707 | -75.31637 | 35911 ft | 387 kts | 227° |
| 2026-05-06 21:27 | 38.14388 | -75.35718 | 35913 ft | 387 kts | 227° |
| 2026-05-06 21:28 | 38.10062 | -75.39786 | 35912 ft | 387 kts | 227° |
| 2026-05-06 21:28 | 38.05760 | -75.43827 | 35909 ft | 388 kts | 227° |
| 2026-05-06 21:29 | 38.01352 | -75.47818 | 35907 ft | 391 kts | 225° |
| 2026-05-06 21:29 | 37.96846 | -75.51697 | 35906 ft | 392 kts | 225° |
| 2026-05-06 21:30 | 37.92336 | -75.55573 | 35902 ft | 392 kts | 225° |
| 2026-05-06 21:30 | 37.87864 | -75.59446 | 35897 ft | 393 kts | 225° |
| 2026-05-06 21:31 | 37.83232 | -75.63195 | 35896 ft | 404 kts | 217° |
| 2026-05-06 21:31 | 37.78071 | -75.66162 | 35894 ft | 409 kts | 216° |
| 2026-05-06 21:32 | 37.72873 | -75.69111 | 35886 ft | 410 kts | 216° |
| 2026-05-06 21:32 | 37.65087 | -75.73514 | 35891 ft | 412 kts | 216° |
| 2026-05-06 21:33 | 37.59855 | -75.76480 | 35895 ft | 412 kts | 216° |
| 2026-05-06 21:33 | 37.54617 | -75.79453 | 35892 ft | 413 kts | 216° |
| 2026-05-06 21:34 | 37.49361 | -75.82425 | 35893 ft | 414 kts | 216° |
| 2026-05-06 21:34 | 37.44133 | -75.85370 | 35888 ft | 415 kts | 216° |
| 2026-05-06 21:35 | 37.38863 | -75.88343 | 35884 ft | 415 kts | 216° |
| 2026-05-06 21:35 | 37.33587 | -75.91314 | 35885 ft | 416 kts | 216° |
| 2026-05-06 21:36 | 37.28299 | -75.94289 | 35892 ft | 417 kts | 216° |
| 2026-05-06 21:36 | 37.23003 | -75.97260 | 35899 ft | 417 kts | 216° |
| 2026-05-06 21:37 | 37.17734 | -76.00204 | 35900 ft | 417 kts | 216° |
| 2026-05-06 21:37 | 37.12427 | -76.03169 | 35904 ft | 417 kts | 217° |
| 2026-05-06 21:38 | 37.08501 | -76.05595 | 35907 ft | 411 kts | 220° |
| 2026-05-06 21:38 | 37.07434 | -76.06313 | 35913 ft | 411 kts | 220° |
| 2026-05-06 21:39 | 37.03995 | -76.08624 | 35925 ft | 409 kts | 221° |
| 2026-05-06 21:40 | 37.02739 | -76.09525 | 35924 ft | 408 kts | 222° |